Batson, Mississippi
Current Conditions -  °F | °C
As of 1:53 AM on Saturday 01 Nov 2014 (Local Time) from KHBG Reporting Station
Clear Clear  
Wind Chill: 42°   Ceiling: Unl
Heat Index: 47°   Visibility: 10mi
Dew Point: 23°   Wind: 10mph
Humidity: 39%   Direction: 350°N
Pressure: 30.26"   Gusts: NA
Location:  31.1996°N, 89.2694°W
Report Text: KHBG 010653Z AUTO 35009KT 10SM CLR 08/M05 A3026 RMK AO2 SLP247 T00831050
Loading
Personal Weather Stations






























Interactive Weather Map
Tropical Storm Tracking
New forecast layout! Learn more

10-Day Weather Forecast

Advertisements
Track Severe Weather on mobile